sensor_id;sensor_type;location;lat;lon;timestamp;temperature;humidity
38241;DHT22;24037;49.536;8.500;2024-02-23T00:01:44;8.40;78.60
38241;DHT22;24037;49.536;8.500;2024-02-23T00:04:11;8.30;99.90
38241;DHT22;24037;49.536;8.500;2024-02-23T00:06:37;8.30;99.90
38241;DHT22;24037;49.536;8.500;2024-02-23T00:09:03;8.20;99.90
38241;DHT22;24037;49.536;8.500;2024-02-23T00:11:30;8.10;99.90
38241;DHT22;24037;49.536;8.500;2024-02-23T00:13:58;8.10;99.90
38241;DHT22;24037;49.536;8.500;2024-02-23T00:16:24;8.10;99.90
38241;DHT22;24037;49.536;8.500;2024-02-23T00:18:50;8.10;99.90
38241;DHT22;24037;49.536;8.500;2024-02-23T00:21:16;8.00;99.90
38241;DHT22;24037;49.536;8.500;2024-02-23T00:23:42;8.00;99.90
38241;DHT22;24037;49.536;8.500;2024-02-23T00:26:08;8.00;99.90
38241;DHT22;24037;49.536;8.500;2024-02-23T00:28:35;8.00;99.90
38241;DHT22;24037;49.536;8.500;2024-02-23T00:31:01;7.80;99.90
38241;DHT22;24037;49.536;8.500;2024-02-23T00:33:27;7.70;99.90
38241;DHT22;24037;49.536;8.500;2024-02-23T00:35:53;7.70;99.90
38241;DHT22;24037;49.536;8.500;2024-02-23T00:38:19;7.60;99.90
38241;DHT22;24037;49.536;8.500;2024-02-23T00:40:45;7.60;99.90
38241;DHT22;24037;49.536;8.500;2024-02-23T00:43:12;7.50;99.90
38241;DHT22;24037;49.536;8.500;2024-02-23T00:45:38;7.40;99.90
38241;DHT22;24037;49.536;8.500;2024-02-23T00:48:04;7.20;99.90
38241;DHT22;24037;49.536;8.500;2024-02-23T00:50:30;7.20;99.90
38241;DHT22;24037;49.536;8.500;2024-02-23T00:52:57;7.10;99.90
38241;DHT22;24037;49.536;8.500;2024-02-23T00:55:23;7.10;99.90
38241;DHT22;24037;49.536;8.500;2024-02-23T00:57:51;7.20;99.90
38241;DHT22;24037;49.536;8.500;2024-02-23T01:00:17;7.20;99.90
38241;DHT22;24037;49.536;8.500;2024-02-23T01:02:44;7.10;99.90
38241;DHT22;24037;49.536;8.500;2024-02-23T01:05:10;7.10;99.90
38241;DHT22;24037;49.536;8.500;2024-02-23T01:07:36;7.10;99.90
38241;DHT22;24037;49.536;8.500;2024-02-23T01:10:02;7.00;99.90
38241;DHT22;24037;49.536;8.500;2024-02-23T01:12:29;7.00;99.90
38241;DHT22;24037;49.536;8.500;2024-02-23T01:14:56;7.00;99.90
38241;DHT22;24037;49.536;8.500;2024-02-23T01:17:22;6.90;99.90
38241;DHT22;24037;49.536;8.500;2024-02-23T01:19:48;6.80;99.90
38241;DHT22;24037;49.536;8.500;2024-02-23T01:22:15;6.80;99.90
38241;DHT22;24037;49.536;8.500;2024-02-23T01:24:41;6.70;99.90
38241;DHT22;24037;49.536;8.500;2024-02-23T01:27:07;6.60;99.90
38241;DHT22;24037;49.536;8.500;2024-02-23T01:29:34;6.60;99.90
38241;DHT22;24037;49.536;8.500;2024-02-23T01:32:00;6.70;99.90
38241;DHT22;24037;49.536;8.500;2024-02-23T01:34:27;6.80;99.90
38241;DHT22;24037;49.536;8.500;2024-02-23T01:36:53;7.00;99.90
38241;DHT22;24037;49.536;8.500;2024-02-23T01:39:19;7.10;99.90
38241;DHT22;24037;49.536;8.500;2024-02-23T01:41:46;7.20;99.90
38241;DHT22;24037;49.536;8.500;2024-02-23T01:44:12;7.00;99.90
38241;DHT22;24037;49.536;8.500;2024-02-23T01:46:39;6.60;1.00
38241;DHT22;24037;49.536;8.500;2024-02-23T01:49:06;6.20;1.00
38241;DHT22;24037;49.536;8.500;2024-02-23T01:51:33;6.10;1.00
38241;DHT22;24037;49.536;8.500;2024-02-23T01:54:00;5.90;1.00
38241;DHT22;24037;49.536;8.500;2024-02-23T01:56:27;5.80;1.00
38241;DHT22;24037;49.536;8.500;2024-02-23T01:58:54;5.80;1.00
38241;DHT22;24037;49.536;8.500;2024-02-23T02:01:21;5.70;1.00
38241;DHT22;24037;49.536;8.500;2024-02-23T02:03:47;5.70;1.00
38241;DHT22;24037;49.536;8.500;2024-02-23T02:06:13;5.70;1.00
38241;DHT22;24037;49.536;8.500;2024-02-23T02:08:40;5.70;1.00
38241;DHT22;24037;49.536;8.500;2024-02-23T02:11:06;5.80;1.00
38241;DHT22;24037;49.536;8.500;2024-02-23T02:13:32;5.80;99.90
38241;DHT22;24037;49.536;8.500;2024-02-23T02:16:00;5.80;99.90
38241;DHT22;24037;49.536;8.500;2024-02-23T02:18:26;5.70;99.90
38241;DHT22;24037;49.536;8.500;2024-02-23T02:20:56;5.70;99.90
38241;DHT22;24037;49.536;8.500;2024-02-23T02:23:23;5.60;99.90
38241;DHT22;24037;49.536;8.500;2024-02-23T02:25:54;5.60;99.90
38241;DHT22;24037;49.536;8.500;2024-02-23T02:28:20;5.60;99.90
38241;DHT22;24037;49.536;8.500;2024-02-23T02:30:48;5.50;99.90
38241;DHT22;24037;49.536;8.500;2024-02-23T02:33:14;5.50;99.90
38241;DHT22;24037;49.536;8.500;2024-02-23T02:35:40;5.40;99.90
38241;DHT22;24037;49.536;8.500;2024-02-23T02:38:06;5.40;1.00
38241;DHT22;24037;49.536;8.500;2024-02-23T02:40:32;5.40;1.00
38241;DHT22;24037;49.536;8.500;2024-02-23T02:42:58;5.40;1.00
38241;DHT22;24037;49.536;8.500;2024-02-23T02:45:25;5.40;1.00
38241;DHT22;24037;49.536;8.500;2024-02-23T02:47:51;5.40;1.00
38241;DHT22;24037;49.536;8.500;2024-02-23T02:50:17;5.50;1.00
38241;DHT22;24037;49.536;8.500;2024-02-23T02:52:43;5.60;1.00
38241;DHT22;24037;49.536;8.500;2024-02-23T02:55:09;5.60;99.90
38241;DHT22;24037;49.536;8.500;2024-02-23T02:57:36;5.60;99.90
38241;DHT22;24037;49.536;8.500;2024-02-23T03:00:03;5.60;99.90
38241;DHT22;24037;49.536;8.500;2024-02-23T03:02:31;5.60;99.90
38241;DHT22;24037;49.536;8.500;2024-02-23T03:04:58;5.70;99.90
38241;DHT22;24037;49.536;8.500;2024-02-23T03:07:24;5.80;99.90
38241;DHT22;24037;49.536;8.500;2024-02-23T03:09:50;5.90;99.90
38241;DHT22;24037;49.536;8.500;2024-02-23T03:12:17;5.90;99.90
38241;DHT22;24037;49.536;8.500;2024-02-23T03:14:44;5.90;99.90
38241;DHT22;24037;49.536;8.500;2024-02-23T03:17:10;6.00;99.90
38241;DHT22;24037;49.536;8.500;2024-02-23T03:19:37;6.00;99.90
38241;DHT22;24037;49.536;8.500;2024-02-23T03:22:03;6.00;99.90
38241;DHT22;24037;49.536;8.500;2024-02-23T03:24:29;5.90;99.90
38241;DHT22;24037;49.536;8.500;2024-02-23T03:26:56;5.80;99.90
38241;DHT22;24037;49.536;8.500;2024-02-23T03:29:22;5.80;99.90
38241;DHT22;24037;49.536;8.500;2024-02-23T03:31:55;5.80;99.90
38241;DHT22;24037;49.536;8.500;2024-02-23T03:34:22;5.70;99.90
38241;DHT22;24037;49.536;8.500;2024-02-23T03:36:48;5.70;99.90
38241;DHT22;24037;49.536;8.500;2024-02-23T03:39:14;5.70;99.90
38241;DHT22;24037;49.536;8.500;2024-02-23T03:41:40;5.70;99.90
38241;DHT22;24037;49.536;8.500;2024-02-23T03:44:06;5.60;99.90
38241;DHT22;24037;49.536;8.500;2024-02-23T03:46:33;5.60;99.90
38241;DHT22;24037;49.536;8.500;2024-02-23T03:49:00;5.50;99.90
38241;DHT22;24037;49.536;8.500;2024-02-23T03:51:27;5.40;99.90
38241;DHT22;24037;49.536;8.500;2024-02-23T03:53:53;5.40;99.90
38241;DHT22;24037;49.536;8.500;2024-02-23T03:56:19;5.40;99.90
38241;DHT22;24037;49.536;8.500;2024-02-23T03:58:45;5.40;99.90
38241;DHT22;24037;49.536;8.500;2024-02-23T04:01:11;5.40;99.90
38241;DHT22;24037;49.536;8.500;2024-02-23T04:03:37;5.40;99.90
38241;DHT22;24037;49.536;8.500;2024-02-23T04:06:04;5.40;99.90
38241;DHT22;24037;49.536;8.500;2024-02-23T04:08:31;5.30;99.90
38241;DHT22;24037;49.536;8.500;2024-02-23T04:10:57;5.20;1.00
38241;DHT22;24037;49.536;8.500;2024-02-23T04:13:23;5.20;1.00
38241;DHT22;24037;49.536;8.500;2024-02-23T04:15:50;5.20;1.00
38241;DHT22;24037;49.536;8.500;2024-02-23T04:18:16;5.10;1.00
38241;DHT22;24037;49.536;8.500;2024-02-23T04:20:42;5.00;1.00
38241;DHT22;24037;49.536;8.500;2024-02-23T04:23:08;5.00;1.00
38241;DHT22;24037;49.536;8.500;2024-02-23T04:25:34;4.90;1.00
38241;DHT22;24037;49.536;8.500;2024-02-23T04:28:00;4.90;1.00
38241;DHT22;24037;49.536;8.500;2024-02-23T04:30:27;4.90;1.00
38241;DHT22;24037;49.536;8.500;2024-02-23T04:32:53;4.80;1.00
38241;DHT22;24037;49.536;8.500;2024-02-23T04:35:19;4.80;1.00
38241;DHT22;24037;49.536;8.500;2024-02-23T04:37:45;4.80;1.00
38241;DHT22;24037;49.536;8.500;2024-02-23T04:40:12;4.70;1.00
38241;DHT22;24037;49.536;8.500;2024-02-23T04:42:38;4.70;1.00
38241;DHT22;24037;49.536;8.500;2024-02-23T04:45:05;4.70;1.00
38241;DHT22;24037;49.536;8.500;2024-02-23T04:47:31;4.60;1.00
38241;DHT22;24037;49.536;8.500;2024-02-23T04:49:58;4.80;1.00
38241;DHT22;24037;49.536;8.500;2024-02-23T04:52:25;4.90;1.00
38241;DHT22;24037;49.536;8.500;2024-02-23T04:54:51;4.90;1.00
38241;DHT22;24037;49.536;8.500;2024-02-23T04:57:17;5.10;99.90
38241;DHT22;24037;49.536;8.500;2024-02-23T04:59:43;5.10;99.90
38241;DHT22;24037;49.536;8.500;2024-02-23T05:02:10;5.10;99.90
38241;DHT22;24037;49.536;8.500;2024-02-23T05:04:36;5.30;99.90
38241;DHT22;24037;49.536;8.500;2024-02-23T05:07:02;5.30;99.90
38241;DHT22;24037;49.536;8.500;2024-02-23T05:09:28;5.20;99.90
38241;DHT22;24037;49.536;8.500;2024-02-23T05:11:55;5.20;99.90
38241;DHT22;24037;49.536;8.500;2024-02-23T05:14:21;5.20;99.90
38241;DHT22;24037;49.536;8.500;2024-02-23T05:16:47;5.10;99.90
38241;DHT22;24037;49.536;8.500;2024-02-23T05:19:13;5.20;99.90
38241;DHT22;24037;49.536;8.500;2024-02-23T05:21:39;5.30;99.90
38241;DHT22;24037;49.536;8.500;2024-02-23T05:24:05;5.30;99.90
38241;DHT22;24037;49.536;8.500;2024-02-23T05:26:32;5.20;99.90
38241;DHT22;24037;49.536;8.500;2024-02-23T05:28:58;5.10;99.90
38241;DHT22;24037;49.536;8.500;2024-02-23T05:31:44;5.00;99.90
38241;DHT22;24037;49.536;8.500;2024-02-23T05:34:11;5.00;99.90
38241;DHT22;24037;49.536;8.500;2024-02-23T05:36:37;5.00;99.90
38241;DHT22;24037;49.536;8.500;2024-02-23T05:39:03;5.10;99.90
38241;DHT22;24037;49.536;8.500;2024-02-23T05:41:29;5.10;99.90
38241;DHT22;24037;49.536;8.500;2024-02-23T05:43:55;5.20;99.90
38241;DHT22;24037;49.536;8.500;2024-02-23T05:46:22;5.40;99.90
38241;DHT22;24037;49.536;8.500;2024-02-23T05:48:48;5.40;99.90
38241;DHT22;24037;49.536;8.500;2024-02-23T05:51:14;5.50;99.90
38241;DHT22;24037;49.536;8.500;2024-02-23T05:53:41;5.50;99.90
38241;DHT22;24037;49.536;8.500;2024-02-23T05:56:07;5.60;99.90
38241;DHT22;24037;49.536;8.500;2024-02-23T05:58:33;5.60;99.90
38241;DHT22;24037;49.536;8.500;2024-02-23T06:01:00;5.60;99.90
38241;DHT22;24037;49.536;8.500;2024-02-23T06:03:26;5.60;99.90
38241;DHT22;24037;49.536;8.500;2024-02-23T06:05:52;5.60;99.90
38241;DHT22;24037;49.536;8.500;2024-02-23T06:08:20;5.50;99.90
38241;DHT22;24037;49.536;8.500;2024-02-23T06:10:46;5.50;99.90
38241;DHT22;24037;49.536;8.500;2024-02-23T06:13:12;5.60;99.90
38241;DHT22;24037;49.536;8.500;2024-02-23T06:15:38;5.60;99.90
38241;DHT22;24037;49.536;8.500;2024-02-23T06:18:05;5.60;99.90
38241;DHT22;24037;49.536;8.500;2024-02-23T06:20:31;5.70;99.90
38241;DHT22;24037;49.536;8.500;2024-02-23T06:22:58;5.70;99.90
38241;DHT22;24037;49.536;8.500;2024-02-23T06:25:24;5.70;99.90
38241;DHT22;24037;49.536;8.500;2024-02-23T06:27:50;5.70;99.90
38241;DHT22;24037;49.536;8.500;2024-02-23T06:30:17;5.70;99.90
38241;DHT22;24037;49.536;8.500;2024-02-23T06:32:43;5.70;99.90
38241;DHT22;24037;49.536;8.500;2024-02-23T06:35:11;5.70;99.90
38241;DHT22;24037;49.536;8.500;2024-02-23T06:37:38;5.70;99.90
38241;DHT22;24037;49.536;8.500;2024-02-23T06:40:04;5.70;99.90
38241;DHT22;24037;49.536;8.500;2024-02-23T06:42:31;5.70;99.90
38241;DHT22;24037;49.536;8.500;2024-02-23T06:44:58;5.70;99.90
38241;DHT22;24037;49.536;8.500;2024-02-23T06:47:24;5.70;99.90
38241;DHT22;24037;49.536;8.500;2024-02-23T06:49:50;5.80;99.90
38241;DHT22;24037;49.536;8.500;2024-02-23T06:52:17;5.80;99.90
38241;DHT22;24037;49.536;8.500;2024-02-23T06:54:44;5.80;99.90
38241;DHT22;24037;49.536;8.500;2024-02-23T06:57:11;5.80;99.90
38241;DHT22;24037;49.536;8.500;2024-02-23T06:59:37;5.80;99.90
38241;DHT22;24037;49.536;8.500;2024-02-23T07:02:03;5.80;99.90
38241;DHT22;24037;49.536;8.500;2024-02-23T07:04:30;5.80;99.90
38241;DHT22;24037;49.536;8.500;2024-02-23T07:06:56;5.80;99.90
38241;DHT22;24037;49.536;8.500;2024-02-23T07:09:22;5.80;99.90
38241;DHT22;24037;49.536;8.500;2024-02-23T07:11:48;5.80;99.90
38241;DHT22;24037;49.536;8.500;2024-02-23T07:14:14;5.80;99.90
38241;DHT22;24037;49.536;8.500;2024-02-23T07:16:42;5.90;99.90
38241;DHT22;24037;49.536;8.500;2024-02-23T07:19:09;5.90;99.90
38241;DHT22;24037;49.536;8.500;2024-02-23T07:21:35;5.80;99.90
38241;DHT22;24037;49.536;8.500;2024-02-23T07:24:01;5.80;99.90
38241;DHT22;24037;49.536;8.500;2024-02-23T07:26:27;5.70;99.90
38241;DHT22;24037;49.536;8.500;2024-02-23T07:28:56;5.60;99.90
38241;DHT22;24037;49.536;8.500;2024-02-23T07:31:23;5.50;99.90
38241;DHT22;24037;49.536;8.500;2024-02-23T07:33:49;5.60;99.90
38241;DHT22;24037;49.536;8.500;2024-02-23T07:36:15;5.50;99.90
38241;DHT22;24037;49.536;8.500;2024-02-23T07:38:41;5.50;99.90
38241;DHT22;24037;49.536;8.500;2024-02-23T07:41:10;5.60;99.90
38241;DHT22;24037;49.536;8.500;2024-02-23T07:43:36;5.60;99.90
38241;DHT22;24037;49.536;8.500;2024-02-23T07:46:02;5.60;99.90
38241;DHT22;24037;49.536;8.500;2024-02-23T07:48:30;5.80;99.90
38241;DHT22;24037;49.536;8.500;2024-02-23T07:50:57;5.90;99.90
38241;DHT22;24037;49.536;8.500;2024-02-23T07:53:23;6.00;98.90
38241;DHT22;24037;49.536;8.500;2024-02-23T07:55:49;6.10;94.70
38241;DHT22;24037;49.536;8.500;2024-02-23T07:58:15;6.20;84.00
38241;DHT22;24037;49.536;8.500;2024-02-23T08:00:41;6.40;33.40
38241;DHT22;24037;49.536;8.500;2024-02-23T08:03:07;6.70;1.00
38241;DHT22;24037;49.536;8.500;2024-02-23T08:05:34;6.80;1.00
38241;DHT22;24037;49.536;8.500;2024-02-23T08:08:01;6.80;1.00
38241;DHT22;24037;49.536;8.500;2024-02-23T08:10:27;6.80;1.00
38241;DHT22;24037;49.536;8.500;2024-02-23T08:12:53;6.90;1.00
38241;DHT22;24037;49.536;8.500;2024-02-23T08:15:19;7.00;1.00
38241;DHT22;24037;49.536;8.500;2024-02-23T08:17:45;6.90;1.00
38241;DHT22;24037;49.536;8.500;2024-02-23T08:20:12;6.90;1.00
38241;DHT22;24037;49.536;8.500;2024-02-23T08:22:38;6.90;1.00
38241;DHT22;24037;49.536;8.500;2024-02-23T08:25:04;6.90;1.00
38241;DHT22;24037;49.536;8.500;2024-02-23T08:27:30;6.90;1.00
38241;DHT22;24037;49.536;8.500;2024-02-23T08:29:56;6.90;1.00
38241;DHT22;24037;49.536;8.500;2024-02-23T08:32:23;7.00;1.00
38241;DHT22;24037;49.536;8.500;2024-02-23T08:34:49;7.10;1.00
38241;DHT22;24037;49.536;8.500;2024-02-23T08:37:16;7.20;1.00
38241;DHT22;24037;49.536;8.500;2024-02-23T08:39:42;7.20;1.00
38241;DHT22;24037;49.536;8.500;2024-02-23T08:42:08;7.30;1.00
38241;DHT22;24037;49.536;8.500;2024-02-23T08:44:35;7.40;1.00
38241;DHT22;24037;49.536;8.500;2024-02-23T08:47:02;7.40;1.00
38241;DHT22;24037;49.536;8.500;2024-02-23T08:49:28;7.40;1.00
38241;DHT22;24037;49.536;8.500;2024-02-23T08:51:54;7.30;1.00
38241;DHT22;24037;49.536;8.500;2024-02-23T08:54:22;7.40;1.00
38241;DHT22;24037;49.536;8.500;2024-02-23T08:56:48;7.40;1.00
38241;DHT22;24037;49.536;8.500;2024-02-23T08:59:14;7.40;1.00
38241;DHT22;24037;49.536;8.500;2024-02-23T09:01:40;7.30;1.00
38241;DHT22;24037;49.536;8.500;2024-02-23T09:04:07;7.40;1.00
38241;DHT22;24037;49.536;8.500;2024-02-23T09:06:33;7.50;1.00
38241;DHT22;24037;49.536;8.500;2024-02-23T09:08:59;7.50;1.00
38241;DHT22;24037;49.536;8.500;2024-02-23T09:11:25;7.40;1.00
38241;DHT22;24037;49.536;8.500;2024-02-23T09:13:52;7.50;1.00
38241;DHT22;24037;49.536;8.500;2024-02-23T09:16:18;7.70;1.00
38241;DHT22;24037;49.536;8.500;2024-02-23T09:18:44;7.90;1.00
38241;DHT22;24037;49.536;8.500;2024-02-23T09:21:11;8.00;1.00
38241;DHT22;24037;49.536;8.500;2024-02-23T09:23:37;8.20;1.00
38241;DHT22;24037;49.536;8.500;2024-02-23T09:26:09;8.30;1.00
38241;DHT22;24037;49.536;8.500;2024-02-23T09:28:36;8.20;1.00
38241;DHT22;24037;49.536;8.500;2024-02-23T09:31:02;8.30;1.00
38241;DHT22;24037;49.536;8.500;2024-02-23T09:33:29;8.60;1.00
38241;DHT22;24037;49.536;8.500;2024-02-23T09:35:55;8.70;99.90
38241;DHT22;24037;49.536;8.500;2024-02-23T09:38:21;8.80;1.00
38241;DHT22;24037;49.536;8.500;2024-02-23T09:40:51;9.00;1.00
38241;DHT22;24037;49.536;8.500;2024-02-23T09:43:17;9.10;99.90
38241;DHT22;24037;49.536;8.500;2024-02-23T09:45:46;9.20;99.90
38241;DHT22;24037;49.536;8.500;2024-02-23T09:48:14;9.40;99.90
38241;DHT22;24037;49.536;8.500;2024-02-23T09:50:44;9.30;99.90
38241;DHT22;24037;49.536;8.500;2024-02-23T09:53:11;9.20;99.90
38241;DHT22;24037;49.536;8.500;2024-02-23T09:55:39;9.20;99.90
38241;DHT22;24037;49.536;8.500;2024-02-23T09:58:06;9.30;99.90
38241;DHT22;24037;49.536;8.500;2024-02-23T10:00:36;9.20;99.90
38241;DHT22;24037;49.536;8.500;2024-02-23T10:03:04;9.20;99.90
38241;DHT22;24037;49.536;8.500;2024-02-23T10:05:31;9.00;99.90
38241;DHT22;24037;49.536;8.500;2024-02-23T10:07:58;8.90;99.90
38241;DHT22;24037;49.536;8.500;2024-02-23T10:10:34;9.10;99.90
38241;DHT22;24037;49.536;8.500;2024-02-23T10:13:01;9.20;99.90
38241;DHT22;24037;49.536;8.500;2024-02-23T10:15:30;9.40;99.90
38241;DHT22;24037;49.536;8.500;2024-02-23T10:17:59;9.30;99.90
38241;DHT22;24037;49.536;8.500;2024-02-23T10:20:25;9.40;99.90
38241;DHT22;24037;49.536;8.500;2024-02-23T10:22:52;9.30;99.90
38241;DHT22;24037;49.536;8.500;2024-02-23T10:25:20;9.60;99.90
38241;DHT22;24037;49.536;8.500;2024-02-23T10:27:46;9.80;99.90
38241;DHT22;24037;49.536;8.500;2024-02-23T10:30:13;10.00;99.90
38241;DHT22;24037;49.536;8.500;2024-02-23T10:32:41;10.40;99.90
38241;DHT22;24037;49.536;8.500;2024-02-23T10:35:11;10.60;99.90
38241;DHT22;24037;49.536;8.500;2024-02-23T10:37:43;10.70;99.90
38241;DHT22;24037;49.536;8.500;2024-02-23T10:40:14;10.80;99.90
38241;DHT22;24037;49.536;8.500;2024-02-23T10:42:44;10.50;99.90
38241;DHT22;24037;49.536;8.500;2024-02-23T10:45:18;10.20;99.90
38241;DHT22;24037;49.536;8.500;2024-02-23T10:47:45;10.20;99.90
38241;DHT22;24037;49.536;8.500;2024-02-23T10:50:12;10.20;99.90
38241;DHT22;24037;49.536;8.500;2024-02-23T10:52:42;10.20;99.90
38241;DHT22;24037;49.536;8.500;2024-02-23T10:55:09;10.10;99.90
38241;DHT22;24037;49.536;8.500;2024-02-23T10:57:36;10.00;99.90
38241;DHT22;24037;49.536;8.500;2024-02-23T11:00:03;9.90;99.90
38241;DHT22;24037;49.536;8.500;2024-02-23T11:02:43;9.60;99.90
38241;DHT22;24037;49.536;8.500;2024-02-23T11:05:10;9.70;99.90
38241;DHT22;24037;49.536;8.500;2024-02-23T11:07:39;10.00;99.90
38241;DHT22;24037;49.536;8.500;2024-02-23T11:10:06;10.10;99.90
38241;DHT22;24037;49.536;8.500;2024-02-23T11:12:33;10.00;99.90
38241;DHT22;24037;49.536;8.500;2024-02-23T11:15:01;10.00;99.90
38241;DHT22;24037;49.536;8.500;2024-02-23T11:17:31;10.00;99.90
38241;DHT22;24037;49.536;8.500;2024-02-23T11:19:58;10.00;99.90
38241;DHT22;24037;49.536;8.500;2024-02-23T11:25:05;9.70;99.90
38241;DHT22;24037;49.536;8.500;2024-02-23T11:27:33;9.60;99.90
38241;DHT22;24037;49.536;8.500;2024-02-23T11:30:07;9.70;99.90
38241;DHT22;24037;49.536;8.500;2024-02-23T11:32:47;9.70;99.90
38241;DHT22;24037;49.536;8.500;2024-02-23T11:35:17;9.70;99.90
38241;DHT22;24037;49.536;8.500;2024-02-23T11:37:54;9.80;99.90
38241;DHT22;24037;49.536;8.500;2024-02-23T11:40:26;10.00;99.90
38241;DHT22;24037;49.536;8.500;2024-02-23T11:42:54;10.20;99.90
38241;DHT22;24037;49.536;8.500;2024-02-23T11:45:20;10.40;99.90
38241;DHT22;24037;49.536;8.500;2024-02-23T11:47:47;10.50;99.90
38241;DHT22;24037;49.536;8.500;2024-02-23T11:50:13;10.60;99.90
38241;DHT22;24037;49.536;8.500;2024-02-23T11:52:41;10.70;99.90
38241;DHT22;24037;49.536;8.500;2024-02-23T11:55:07;10.70;99.90
38241;DHT22;24037;49.536;8.500;2024-02-23T11:57:38;10.70;99.90
38241;DHT22;24037;49.536;8.500;2024-02-23T12:00:05;10.90;99.90
38241;DHT22;24037;49.536;8.500;2024-02-23T12:02:36;10.90;99.90
38241;DHT22;24037;49.536;8.500;2024-02-23T12:05:02;10.70;99.90
38241;DHT22;24037;49.536;8.500;2024-02-23T12:07:29;10.70;99.90
38241;DHT22;24037;49.536;8.500;2024-02-23T12:09:56;10.70;99.90
38241;DHT22;24037;49.536;8.500;2024-02-23T12:12:25;10.50;99.90
38241;DHT22;24037;49.536;8.500;2024-02-23T12:14:51;10.30;99.90
38241;DHT22;24037;49.536;8.500;2024-02-23T12:17:17;10.20;99.90
38241;DHT22;24037;49.536;8.500;2024-02-23T12:19:44;10.10;99.90
38241;DHT22;24037;49.536;8.500;2024-02-23T12:22:10;10.00;99.90
38241;DHT22;24037;49.536;8.500;2024-02-23T12:24:39;10.10;99.90
38241;DHT22;24037;49.536;8.500;2024-02-23T12:27:06;10.40;99.90
38241;DHT22;24037;49.536;8.500;2024-02-23T12:29:32;10.60;99.90
38241;DHT22;24037;49.536;8.500;2024-02-23T12:32:05;10.90;99.90
38241;DHT22;24037;49.536;8.500;2024-02-23T12:34:32;11.10;99.90
38241;DHT22;24037;49.536;8.500;2024-02-23T12:36:59;11.00;99.90
38241;DHT22;24037;49.536;8.500;2024-02-23T12:39:25;10.80;99.90
38241;DHT22;24037;49.536;8.500;2024-02-23T12:41:52;10.70;99.90
38241;DHT22;24037;49.536;8.500;2024-02-23T12:44:18;10.50;99.90
38241;DHT22;24037;49.536;8.500;2024-02-23T12:46:45;10.60;99.90
38241;DHT22;24037;49.536;8.500;2024-02-23T12:49:11;10.70;99.90
38241;DHT22;24037;49.536;8.500;2024-02-23T12:51:37;10.70;99.90
38241;DHT22;24037;49.536;8.500;2024-02-23T12:54:03;10.50;99.90
38241;DHT22;24037;49.536;8.500;2024-02-23T12:56:30;10.60;99.90
38241;DHT22;24037;49.536;8.500;2024-02-23T12:58:56;10.80;99.90
38241;DHT22;24037;49.536;8.500;2024-02-23T13:01:23;10.90;99.90
38241;DHT22;24037;49.536;8.500;2024-02-23T13:03:49;11.20;99.90
38241;DHT22;24037;49.536;8.500;2024-02-23T13:06:15;11.30;99.90
38241;DHT22;24037;49.536;8.500;2024-02-23T13:08:41;11.00;99.90
38241;DHT22;24037;49.536;8.500;2024-02-23T13:11:08;11.10;99.90
38241;DHT22;24037;49.536;8.500;2024-02-23T13:13:37;11.40;99.90
38241;DHT22;24037;49.536;8.500;2024-02-23T13:16:04;11.40;99.90
38241;DHT22;24037;49.536;8.500;2024-02-23T13:18:30;11.20;99.90
38241;DHT22;24037;49.536;8.500;2024-02-23T13:20:56;11.00;99.90
38241;DHT22;24037;49.536;8.500;2024-02-23T13:23:22;11.00;99.90
38241;DHT22;24037;49.536;8.500;2024-02-23T13:25:49;10.90;99.90
38241;DHT22;24037;49.536;8.500;2024-02-23T13:28:18;10.80;99.90
38241;DHT22;24037;49.536;8.500;2024-02-23T13:30:44;11.00;99.90
38241;DHT22;24037;49.536;8.500;2024-02-23T13:33:11;11.10;99.90
38241;DHT22;24037;49.536;8.500;2024-02-23T13:35:37;11.20;99.90
38241;DHT22;24037;49.536;8.500;2024-02-23T13:38:05;11.30;99.90
38241;DHT22;24037;49.536;8.500;2024-02-23T13:40:31;11.40;99.90
38241;DHT22;24037;49.536;8.500;2024-02-23T13:42:57;11.30;99.90
38241;DHT22;24037;49.536;8.500;2024-02-23T13:45:24;11.20;99.90
38241;DHT22;24037;49.536;8.500;2024-02-23T13:48:02;11.10;99.90
38241;DHT22;24037;49.536;8.500;2024-02-23T13:50:28;10.90;99.90
38241;DHT22;24037;49.536;8.500;2024-02-23T13:52:55;11.20;99.90
38241;DHT22;24037;49.536;8.500;2024-02-23T13:55:21;11.30;99.90
38241;DHT22;24037;49.536;8.500;2024-02-23T13:57:48;11.20;99.90
38241;DHT22;24037;49.536;8.500;2024-02-23T14:00:16;11.20;99.90
38241;DHT22;24037;49.536;8.500;2024-02-23T14:02:42;11.20;99.90
38241;DHT22;24037;49.536;8.500;2024-02-23T14:05:10;11.00;99.90
38241;DHT22;24037;49.536;8.500;2024-02-23T14:07:36;11.00;99.90
38241;DHT22;24037;49.536;8.500;2024-02-23T14:10:03;10.80;99.90
38241;DHT22;24037;49.536;8.500;2024-02-23T14:12:30;10.90;99.90
38241;DHT22;24037;49.536;8.500;2024-02-23T14:14:56;11.10;99.90
38241;DHT22;24037;49.536;8.500;2024-02-23T14:17:22;11.30;99.90
38241;DHT22;24037;49.536;8.500;2024-02-23T14:19:48;11.30;99.90
38241;DHT22;24037;49.536;8.500;2024-02-23T14:22:16;11.00;99.90
38241;DHT22;24037;49.536;8.500;2024-02-23T14:24:43;10.70;99.90
38241;DHT22;24037;49.536;8.500;2024-02-23T14:27:09;10.60;99.90
38241;DHT22;24037;49.536;8.500;2024-02-23T14:29:35;10.90;99.90
38241;DHT22;24037;49.536;8.500;2024-02-23T14:32:02;11.30;99.90
38241;DHT22;24037;49.536;8.500;2024-02-23T14:34:30;11.30;99.90
38241;DHT22;24037;49.536;8.500;2024-02-23T14:36:59;11.20;1.00
38241;DHT22;24037;49.536;8.500;2024-02-23T14:39:25;11.00;1.00
38241;DHT22;24037;49.536;8.500;2024-02-23T14:41:52;10.80;1.00
38241;DHT22;24037;49.536;8.500;2024-02-23T14:44:18;10.80;1.00
38241;DHT22;24037;49.536;8.500;2024-02-23T14:46:44;10.50;99.90
38241;DHT22;24037;49.536;8.500;2024-02-23T14:49:10;10.30;99.90
38241;DHT22;24037;49.536;8.500;2024-02-23T14:51:37;10.00;1.00
38241;DHT22;24037;49.536;8.500;2024-02-23T14:54:03;9.90;1.00
38241;DHT22;24037;49.536;8.500;2024-02-23T14:56:29;9.80;1.00
38241;DHT22;24037;49.536;8.500;2024-02-23T14:58:56;9.90;1.00
38241;DHT22;24037;49.536;8.500;2024-02-23T15:01:22;10.00;1.00
38241;DHT22;24037;49.536;8.500;2024-02-23T15:03:48;10.30;1.00
38241;DHT22;24037;49.536;8.500;2024-02-23T15:06:15;10.80;1.00
38241;DHT22;24037;49.536;8.500;2024-02-23T15:08:41;11.20;1.00
38241;DHT22;24037;49.536;8.500;2024-02-23T15:11:07;11.30;99.90
38241;DHT22;24037;49.536;8.500;2024-02-23T15:13:33;11.30;99.90
38241;DHT22;24037;49.536;8.500;2024-02-23T15:16:00;11.10;99.90
38241;DHT22;24037;49.536;8.500;2024-02-23T15:18:27;10.80;99.90
38241;DHT22;24037;49.536;8.500;2024-02-23T15:20:53;10.40;99.90
38241;DHT22;24037;49.536;8.500;2024-02-23T15:23:19;10.00;99.90
38241;DHT22;24037;49.536;8.500;2024-02-23T15:25:47;9.90;1.00
38241;DHT22;24037;49.536;8.500;2024-02-23T15:28:14;9.80;1.00
38241;DHT22;24037;49.536;8.500;2024-02-23T15:30:40;9.70;1.00
38241;DHT22;24037;49.536;8.500;2024-02-23T15:33:06;9.70;99.90
38241;DHT22;24037;49.536;8.500;2024-02-23T15:35:32;9.70;99.90
38241;DHT22;24037;49.536;8.500;2024-02-23T15:38:00;9.70;99.90
38241;DHT22;24037;49.536;8.500;2024-02-23T15:40:26;9.80;1.00
38241;DHT22;24037;49.536;8.500;2024-02-23T15:42:53;10.00;99.90
38241;DHT22;24037;49.536;8.500;2024-02-23T15:45:19;10.20;99.90